Time;durP1;ratioP1;P1;durP2;ratioP2;P2;SDS_P1;SDS_P2;PMS_P1;PMS_P2;Temp;Humidity;BMP_temperature;BMP_pressure;BME280_temperature;BME280_humidity;BME280_pressure;Samples;Min_cycle;Max_cycle;Signal;HPM_P1;HPM_P2
2021/09/08 00:01:28;;;;;;;34.03;21.75;;;13.00;90.20;;;;;;5031860;28;20498;-68
2021/09/08 00:03:53;;;;;;;37.92;22.52;;;12.90;90.30;;;;;;5031019;28;20045;-68
2021/09/08 00:06:19;;;;;;;38.58;23.80;;;12.80;90.30;;;;;;5029709;28;20032;-68
2021/09/08 00:08:44;;;;;;;34.65;21.60;;;12.80;90.40;;;;;;5030925;28;20029;-68
2021/09/08 00:11:10;;;;;;;36.92;22.05;;;12.80;90.50;;;;;;5030852;28;20040;-67
2021/09/08 00:13:36;;;;;;;35.10;21.92;;;12.80;90.50;;;;;;5030865;28;20037;-68
2021/09/08 00:16:01;;;;;;;33.67;23.05;;;12.70;90.40;;;;;;5031444;28;20020;-68
2021/09/08 00:18:27;;;;;;;35.22;22.90;;;12.70;90.50;;;;;;5032631;28;20016;-68
2021/09/08 00:20:52;;;;;;;32.67;23.25;;;12.60;90.70;;;;;;5032631;28;20022;-68
2021/09/08 00:23:18;;;;;;;30.45;20.35;;;12.60;90.80;;;;;;5031045;28;20017;-69
2021/09/08 00:25:44;;;;;;;31.10;20.38;;;12.60;90.80;;;;;;5032626;28;20453;-68
2021/09/08 00:28:09;;;;;;;27.70;20.00;;;12.60;90.60;;;;;;5032306;28;20040;-68
2021/09/08 00:30:35;;;;;;;29.15;20.80;;;12.60;90.60;;;;;;5031486;28;20036;-68
2021/09/08 00:33:00;;;;;;;29.75;20.60;;;12.60;90.60;;;;;;5031006;28;20022;-68
2021/09/08 00:35:26;;;;;;;32.17;21.00;;;12.50;90.60;;;;;;5032441;28;20034;-68
2021/09/08 00:37:52;;;;;;;27.55;19.85;;;12.50;90.50;;;;;;5032368;28;20041;-68
2021/09/08 00:40:17;;;;;;;27.23;19.63;;;12.50;90.50;;;;;;5031038;28;20021;-68
2021/09/08 00:42:44;;;;;;;29.05;19.33;;;12.50;90.60;;;;;;5031861;28;20029;-68
2021/09/08 00:45:10;;;;;;;26.25;18.60;;;12.50;90.50;;;;;;5030999;28;20081;-67
2021/09/08 00:47:36;;;;;;;27.83;19.00;;;12.50;90.40;;;;;;5032094;28;20025;-68
2021/09/08 00:50:02;;;;;;;23.65;17.88;;;12.50;90.50;;;;;;5030820;28;20026;-67
2021/09/08 00:52:28;;;;;;;29.58;18.15;;;12.50;90.60;;;;;;5030598;28;20483;-67
2021/09/08 00:54:55;;;;;;;26.60;18.70;;;12.50;90.60;;;;;;5032326;28;20033;-67
2021/09/08 00:57:21;;;;;;;25.40;17.83;;;12.50;90.60;;;;;;5032052;28;20025;-69
2021/09/08 00:59:47;;;;;;;26.58;18.95;;;12.50;90.50;;;;;;5032265;28;20022;-68
2021/09/08 01:02:13;;;;;;;28.05;19.23;;;12.40;90.60;;;;;;5032128;28;20036;-68
2021/09/08 01:04:39;;;;;;;29.77;19.27;;;12.30;90.70;;;;;;5030678;28;20032;-68
2021/09/08 01:07:06;;;;;;;25.60;18.70;;;12.30;90.60;;;;;;5031243;28;20061;-68
2021/09/08 01:09:32;;;;;;;27.33;19.58;;;12.30;90.70;;;;;;5032329;28;20053;-68
2021/09/08 01:11:58;;;;;;;29.30;20.00;;;12.30;90.80;;;;;;5031998;28;20030;-68
2021/09/08 01:14:24;;;;;;;31.70;20.10;;;12.30;91.20;;;;;;5030272;28;20018;-68
2021/09/08 01:16:55;;;;;;;28.98;19.67;;;12.30;91.10;;;;;;5031762;28;20025;-66
2021/09/08 01:19:21;;;;;;;24.55;18.95;;;12.30;91.00;;;;;;5032008;28;20427;-67
2021/09/08 01:21:47;;;;;;;27.55;18.13;;;12.30;90.90;;;;;;5030515;28;20061;-67
2021/09/08 01:24:14;;;;;;;28.85;20.10;;;12.20;90.90;;;;;;5031245;28;20084;-67
2021/09/08 01:26:41;;;;;;;29.35;20.45;;;12.20;91.10;;;;;;5031671;28;20033;-67
2021/09/08 01:29:08;;;;;;;26.83;18.65;;;12.20;91.20;;;;;;5022254;28;20052;-67
2021/09/08 01:31:33;;;;;;;30.20;20.35;;;12.20;91.00;;;;;;5031402;28;20033;-67
2021/09/08 01:33:59;;;;;;;29.33;21.45;;;12.10;91.00;;;;;;5031177;28;20071;-67
2021/09/08 01:36:25;;;;;;;28.85;19.85;;;12.20;91.20;;;;;;5031531;28;20025;-67
2021/09/08 01:38:50;;;;;;;30.05;19.92;;;12.10;91.20;;;;;;5031525;28;20391;-67
2021/09/08 01:41:16;;;;;;;28.75;20.98;;;12.10;91.20;;;;;;5029954;28;20026;-66
2021/09/08 01:43:44;;;;;;;24.85;18.50;;;12.10;91.30;;;;;;5030913;28;20510;-65
2021/09/08 01:46:20;;;;;;;28.65;18.83;;;12.10;91.20;;;;;;5031386;28;20021;-67
2021/09/08 01:48:45;;;;;;;27.50;18.58;;;12.00;91.00;;;;;;5030100;28;20031;-66
2021/09/08 01:51:11;;;;;;;24.85;18.85;;;12.00;91.10;;;;;;5031454;28;20522;-67
2021/09/08 01:53:37;;;;;;;23.55;19.05;;;12.00;91.10;;;;;;5031107;28;20489;-67
2021/09/08 01:56:03;;;;;;;32.08;20.75;;;12.00;91.20;;;;;;5031203;28;20029;-66
2021/09/08 01:58:28;;;;;;;28.52;20.63;;;11.90;91.20;;;;;;5031200;28;20018;-65
2021/09/08 02:00:54;;;;;;;28.98;18.80;;;11.80;91.40;;;;;;5031173;28;20071;-66
2021/09/08 02:03:19;;;;;;;26.48;20.25;;;11.80;91.50;;;;;;5031134;28;20039;-66
2021/09/08 02:05:45;;;;;;;28.50;19.25;;;11.80;91.40;;;;;;5031270;28;20147;-66
2021/09/08 02:08:10;;;;;;;28.35;20.13;;;11.80;91.30;;;;;;5031074;28;20092;-66
2021/09/08 02:10:36;;;;;;;26.42;19.25;;;11.80;91.40;;;;;;5031128;28;20066;-66
2021/09/08 02:13:03;;;;;;;27.85;19.77;;;11.80;91.30;;;;;;5030842;28;20372;-66
2021/09/08 02:15:29;;;;;;;25.77;18.55;;;11.80;91.30;;;;;;5031341;28;20014;-66
2021/09/08 02:17:55;;;;;;;25.90;18.90;;;11.70;91.30;;;;;;5029576;28;20029;-66
2021/09/08 02:20:20;;;;;;;27.02;18.00;;;11.70;91.40;;;;;;5031515;28;20061;-66
2021/09/08 02:22:46;;;;;;;26.80;18.38;;;11.70;91.40;;;;;;5030838;28;20061;-66
2021/09/08 02:25:13;;;;;;;27.40;18.80;;;11.70;91.50;;;;;;5031138;28;20040;-66
2021/09/08 02:27:38;;;;;;;27.85;20.55;;;11.70;91.50;;;;;;5030859;28;20100;-66
2021/09/08 02:30:04;;;;;;;27.15;18.73;;;11.60;91.70;;;;;;5030821;28;20109;-67
2021/09/08 02:32:30;;;;;;;31.92;21.85;;;11.60;91.60;;;;;;5030770;28;20014;-67
2021/09/08 02:34:56;;;;;;;29.95;21.05;;;11.70;91.90;;;;;;5030871;28;20026;-66
2021/09/08 02:37:21;;;;;;;27.27;19.55;;;11.60;91.90;;;;;;5030933;28;20022;-67
2021/09/08 02:39:47;;;;;;;30.92;19.58;;;11.70;91.80;;;;;;5030906;28;20033;-67
2021/09/08 02:42:13;;;;;;;31.08;19.08;;;11.70;91.80;;;;;;5030770;28;20103;-66
2021/09/08 02:44:39;;;;;;;26.17;19.00;;;11.70;91.70;;;;;;5029326;28;20395;-67
2021/09/08 02:47:04;;;;;;;28.63;18.15;;;11.70;91.70;;;;;;5030891;28;20025;-67
2021/09/08 02:49:30;;;;;;;25.73;19.60;;;11.70;91.70;;;;;;5030844;28;20029;-66
2021/09/08 02:51:55;;;;;;;27.85;19.13;;;11.60;91.70;;;;;;5029314;28;20029;-66
2021/09/08 02:54:21;;;;;;;27.33;17.70;;;11.60;91.60;;;;;;5032254;28;20021;-67
2021/09/08 02:56:46;;;;;;;24.50;18.02;;;11.60;91.60;;;;;;5034274;28;20479;-66
2021/09/08 02:59:12;;;;;;;27.50;18.25;;;11.50;91.60;;;;;;5034441;28;20060;-68
2021/09/08 03:01:37;;;;;;;26.63;18.85;;;11.50;91.60;;;;;;5034261;28;20025;-66
2021/09/08 03:04:03;;;;;;;31.00;19.17;;;11.50;91.60;;;;;;5032491;28;20022;-67
2021/09/08 03:06:28;;;;;;;29.40;20.60;;;11.50;91.80;;;;;;5034129;28;20391;-67
2021/09/08 03:08:54;;;;;;;27.95;20.45;;;11.50;91.90;;;;;;5034027;28;20415;-67
2021/09/08 03:11:20;;;;;;;28.00;20.40;;;11.50;92.10;;;;;;5033869;28;20033;-67
2021/09/08 03:13:46;;;;;;;28.52;20.02;;;11.50;92.00;;;;;;5033647;28;20100;-67
2021/09/08 03:16:12;;;;;;;162.30;110.10;;;11.40;91.90;;;;;;5034052;28;20067;-67
2021/09/08 03:18:37;;;;;;;182.88;118.18;;;11.40;91.80;;;;;;5033831;28;20030;-67
2021/09/08 03:21:03;;;;;;;174.52;97.47;;;11.40;91.70;;;;;;5033857;28;20033;-66
2021/09/08 03:23:28;;;;;;;36.42;23.70;;;11.40;91.80;;;;;;5033740;28;20077;-67
2021/09/08 03:25:54;;;;;;;40.13;24.33;;;11.30;91.90;;;;;;5032376;28;20025;-66
2021/09/08 03:28:19;;;;;;;29.35;20.33;;;11.30;91.90;;;;;;5032380;28;20561;-67
2021/09/08 03:30:45;;;;;;;591.40;396.35;;;11.30;91.90;;;;;;5033629;28;20025;-67
2021/09/08 03:33:10;;;;;;;113.70;58.10;;;11.30;91.90;;;;;;5032084;28;20024;-67
2021/09/08 03:35:36;;;;;;;49.92;29.02;;;11.40;92.00;;;;;;5033589;28;20491;-66
2021/09/08 03:38:02;;;;;;;48.05;27.95;;;11.40;91.90;;;;;;5032295;28;20386;-67
2021/09/08 03:40:27;;;;;;;58.60;31.60;;;11.30;91.90;;;;;;5032133;28;20022;-66
2021/09/08 03:42:53;;;;;;;57.50;29.85;;;11.40;92.00;;;;;;5033125;28;20494;-66
2021/09/08 03:45:18;;;;;;;42.85;24.80;;;11.40;91.90;;;;;;5033545;28;20029;-67
2021/09/08 03:47:44;;;;;;;37.20;22.33;;;11.30;91.90;;;;;;5032159;28;20441;-67
2021/09/08 03:50:11;;;;;;;49.67;25.80;;;11.30;91.90;;;;;;5033310;28;20026;-67
2021/09/08 03:52:36;;;;;;;25.15;17.05;;;11.30;91.90;;;;;;5032892;28;20029;-67
2021/09/08 03:55:02;;;;;;;25.45;18.65;;;11.30;91.90;;;;;;5031672;28;20017;-67
2021/09/08 03:57:28;;;;;;;25.77;18.55;;;11.30;91.90;;;;;;5033401;28;20029;-67
2021/09/08 03:59:53;;;;;;;21.58;17.77;;;11.30;91.90;;;;;;5032988;28;20030;-68
2021/09/08 04:02:19;;;;;;;25.25;18.35;;;11.30;91.90;;;;;;5032846;28;20025;-67
2021/09/08 04:04:44;;;;;;;28.05;19.80;;;11.30;92.00;;;;;;5032673;28;20023;-68
2021/09/08 04:07:10;;;;;;;27.40;19.92;;;11.30;92.30;;;;;;5031694;28;20030;-67
2021/09/08 04:09:35;;;;;;;29.52;18.50;;;11.30;92.20;;;;;;5032723;28;20075;-67
2021/09/08 04:12:01;;;;;;;23.20;17.95;;;11.30;92.30;;;;;;5032770;28;20026;-67
2021/09/08 04:14:26;;;;;;;24.75;18.02;;;11.20;92.30;;;;;;5031327;28;20407;-67
2021/09/08 04:16:52;;;;;;;24.38;17.27;;;11.20;92.10;;;;;;5031466;28;20056;-67
2021/09/08 04:19:17;;;;;;;23.23;17.60;;;11.20;92.20;;;;;;5031311;28;20022;-67
2021/09/08 04:21:43;;;;;;;26.15;19.00;;;11.20;92.10;;;;;;5032447;28;20048;-67
2021/09/08 04:24:09;;;;;;;27.88;18.90;;;11.20;92.10;;;;;;5031007;28;20026;-67
2021/09/08 04:26:34;;;;;;;31.95;19.00;;;11.20;92.10;;;;;;5032353;28;20465;-67
2021/09/08 04:29:00;;;;;;;25.35;18.20;;;11.10;92.30;;;;;;5032374;28;20040;-68
2021/09/08 04:31:25;;;;;;;22.40;17.23;;;11.20;92.20;;;;;;5031209;28;20029;-67
2021/09/08 04:33:51;;;;;;;25.75;16.83;;;11.20;92.20;;;;;;5030394;28;20021;-67
2021/09/08 04:36:16;;;;;;;24.88;16.92;;;11.20;92.10;;;;;;5032199;28;20100;-67
2021/09/08 04:38:45;;;;;;;26.00;18.55;;;11.20;92.10;;;;;;5029996;28;20434;-66
2021/09/08 04:41:11;;;;;;;21.35;16.05;;;11.20;92.10;;;;;;5030159;28;20025;-66
2021/09/08 04:43:37;;;;;;;24.02;17.15;;;11.20;92.10;;;;;;5029914;28;20083;-67
2021/09/08 04:46:03;;;;;;;23.17;16.20;;;11.30;92.10;;;;;;5029081;28;20495;-67
2021/09/08 04:48:28;;;;;;;21.23;16.38;;;11.30;92.20;;;;;;5030993;28;20108;-67
2021/09/08 04:50:54;;;;;;;23.85;16.50;;;11.40;92.20;;;;;;5029792;28;20017;-67
2021/09/08 04:53:19;;;;;;;23.95;17.17;;;11.40;92.20;;;;;;5030457;28;20156;-67
2021/09/08 04:55:45;;;;;;;23.35;16.00;;;11.50;92.30;;;;;;5031298;28;20030;-67
2021/09/08 04:58:10;;;;;;;23.55;17.52;;;11.70;92.40;;;;;;5031778;28;20142;-67
2021/09/08 05:00:36;;;;;;;22.88;16.45;;;12.00;92.30;;;;;;5031824;28;20036;-68
2021/09/08 05:03:02;;;;;;;21.33;14.85;;;12.50;91.80;;;;;;5031429;28;20030;-67
2021/09/08 05:05:27;;;;;;;17.83;13.85;;;13.10;90.30;;;;;;5031498;28;20025;-67
2021/09/08 05:07:53;;;;;;;18.15;11.15;;;13.80;90.20;;;;;;5029939;28;20117;-67
2021/09/08 05:10:18;;;;;;;18.77;12.63;;;14.40;86.10;;;;;;5031021;28;20048;-68
2021/09/08 05:12:44;;;;;;;14.52;10.63;;;15.10;84.10;;;;;;5029780;28;20079;-68
2021/09/08 05:15:10;;;;;;;17.40;9.63;;;15.70;81.90;;;;;;5030668;28;20057;-68
2021/09/08 05:17:36;;;;;;;14.25;9.48;;;16.20;78.70;;;;;;5029461;28;20075;-68
2021/09/08 05:20:06;;;;;;;12.30;9.63;;;17.00;74.40;;;;;;5029183;28;20029;-68
2021/09/08 05:22:32;;;;;;;14.88;9.27;;;17.20;72.80;;;;;;5030908;28;20669;-68
2021/09/08 05:24:57;;;;;;;13.80;10.38;;;17.80;70.80;;;;;;5031034;28;20113;-68
2021/09/08 05:27:23;;;;;;;17.15;10.55;;;18.10;68.10;;;;;;5029619;28;20394;-68
2021/09/08 05:29:49;;;;;;;11.13;8.48;;;18.50;67.70;;;;;;5030103;28;20489;-67
2021/09/08 05:32:14;;;;;;;54.80;27.10;;;19.00;66.20;;;;;;5026937;28;20024;-68
2021/09/08 05:34:40;;;;;;;10.82;8.05;;;20.00;63.10;;;;;;5024021;28;20030;-68
2021/09/08 05:37:05;;;;;;;15.40;9.57;;;20.50;60.10;;;;;;5020196;28;20025;-68
2021/09/08 05:39:31;;;;;;;21.08;8.15;;;21.20;57.70;;;;;;5017158;28;20022;-68
2021/09/08 05:41:57;;;;;;;14.52;8.93;;;21.50;56.30;;;;;;5028244;28;20068;-67
2021/09/08 05:44:22;;;;;;;13.93;8.55;;;21.90;54.20;;;;;;5069801;22;20185;-65
2021/09/08 05:46:48;;;;;;;10.13;7.93;;;22.10;53.10;;;;;;5090833;28;20032;-65
2021/09/08 05:49:14;;;;;;;18.35;10.93;;;21.60;54.60;;;;;;5091194;28;20035;-66
2021/09/08 05:51:40;;;;;;;10.65;8.65;;;21.90;53.90;;;;;;5091043;28;20477;-65
2021/09/08 05:54:06;;;;;;;11.27;8.25;;;22.30;53.10;;;;;;5091014;28;20028;-66
2021/09/08 05:56:33;;;;;;;12.13;8.73;;;23.00;52.00;;;;;;5089372;28;20035;-66
2021/09/08 05:58:58;;;;;;;12.30;8.65;;;23.30;50.90;;;;;;5090304;28;20464;-65
2021/09/08 06:01:24;;;;;;;10.88;8.25;;;23.70;48.90;;;;;;5090926;28;20078;-65
2021/09/08 06:03:49;;;;;;;13.63;8.45;;;24.00;49.20;;;;;;5090607;28;20020;-66
2021/09/08 06:06:15;;;;;;;11.85;8.10;;;24.20;48.40;;;;;;5091043;28;20028;-65
2021/09/08 06:08:41;;;;;;;11.30;7.72;;;24.40;47.30;;;;;;5090131;28;20020;-66
2021/09/08 06:11:08;;;;;;;11.82;9.23;;;24.50;47.20;;;;;;5089612;28;20032;-65
2021/09/08 06:13:39;;;;;;;13.77;9.05;;;23.30;48.40;;;;;;5091162;28;20028;-74
2021/09/08 06:16:05;;;;;;;9.35;8.23;;;22.50;51.00;;;;;;5090407;28;20031;-72
2021/09/08 06:18:30;;;;;;;14.13;8.10;;;22.20;51.60;;;;;;5076670;28;20024;-72
2021/09/08 06:20:56;;;;;;;12.77;9.00;;;22.50;52.50;;;;;;5091112;28;20024;-70
2021/09/08 06:23:22;;;;;;;10.00;7.90;;;23.00;50.70;;;;;;5090894;28;20032;-71
2021/09/08 06:25:48;;;;;;;15.20;9.20;;;23.40;49.80;;;;;;5090052;28;20485;-72
2021/09/08 06:28:14;;;;;;;13.73;9.02;;;24.20;47.70;;;;;;5090192;28;20028;-70
2021/09/08 06:30:39;;;;;;;13.93;9.02;;;24.40;47.50;;;;;;5095208;28;20069;-70
2021/09/08 06:33:05;;;;;;;19.17;12.13;;;24.90;45.50;;;;;;5094828;28;20107;-72
2021/09/08 06:35:31;;;;;;;15.98;9.07;;;24.90;46.30;;;;;;5094703;28;20109;-71
2021/09/08 06:37:56;;;;;;;13.27;9.13;;;24.30;46.80;;;;;;5090414;28;20095;-70
2021/09/08 06:40:22;;;;;;;17.77;10.13;;;23.90;47.90;;;;;;5087879;28;20405;-70
2021/09/08 06:42:47;;;;;;;12.45;9.57;;;23.00;50.40;;;;;;5094157;28;20485;-70
2021/09/08 06:45:13;;;;;;;16.08;9.68;;;23.20;50.40;;;;;;5094288;28;20036;-69
2021/09/08 06:47:39;;;;;;;16.38;10.23;;;22.00;54.10;;;;;;5094407;28;20111;-69
2021/09/08 06:50:06;;;;;;;14.95;10.13;;;21.60;55.30;;;;;;5094307;28;20418;-68
2021/09/08 06:52:32;;;;;;;14.13;10.25;;;21.90;56.30;;;;;;5094106;28;20024;-70
2021/09/08 06:54:57;;;;;;;15.48;10.73;;;22.20;55.20;;;;;;5094282;28;20024;-70
2021/09/08 06:57:23;;;;;;;12.70;10.38;;;23.20;52.80;;;;;;5090003;28;20012;-70
2021/09/08 06:59:49;;;;;;;29.40;19.65;;;22.80;53.80;;;;;;5093157;28;20294;-67
2021/09/08 07:02:14;;;;;;;14.30;10.40;;;22.90;53.50;;;;;;5094075;28;20099;-70
2021/09/08 07:04:40;;;;;;;16.48;10.07;;;22.70;54.50;;;;;;5093992;28;20028;-69
2021/09/08 07:07:06;;;;;;;15.35;11.18;;;23.90;52.10;;;;;;5094233;28;20081;-70
2021/09/08 07:09:31;;;;;;;28.42;19.33;;;24.50;49.40;;;;;;5093871;28;20031;-71
2021/09/08 07:11:57;;;;;;;16.88;11.02;;;24.70;49.90;;;;;;5099972;28;20382;-72
2021/09/08 07:14:23;;;;;;;13.57;10.93;;;24.40;50.10;;;;;;5087570;28;20095;-71
2021/09/08 07:16:49;;;;;;;16.02;11.15;;;23.90;51.70;;;;;;5093967;28;20483;-71
2021/09/08 07:19:15;;;;;;;14.00;10.82;;;24.20;50.90;;;;;;5087111;28;20107;-67
2021/09/08 07:21:40;;;;;;;16.42;11.52;;;24.00;51.00;;;;;;5090751;28;20017;-67
2021/09/08 07:24:06;;;;;;;15.20;11.55;;;23.90;51.80;;;;;;5091659;28;20225;-67
2021/09/08 07:26:35;;;;;;;15.90;11.50;;;24.00;51.90;;;;;;5092886;28;20035;-67
2021/09/08 07:29:02;;;;;;;14.60;11.77;;;23.80;51.80;;;;;;5092585;28;20024;-67
2021/09/08 07:31:28;;;;;;;15.23;12.38;;;23.30;53.40;;;;;;5093587;28;20035;-66
2021/09/08 07:33:55;;;;;;;16.90;11.45;;;23.50;52.90;;;;;;5093135;28;20385;-67
2021/09/08 07:36:21;;;;;;;17.98;12.60;;;23.30;54.10;;;;;;5092426;28;20089;-67
2021/09/08 07:38:46;;;;;;;19.30;13.48;;;22.90;54.50;;;;;;5088145;28;20032;-67
2021/09/08 07:41:13;;;;;;;17.95;12.38;;;22.70;55.30;;;;;;5093260;28;20432;-67
2021/09/08 07:43:39;;;;;;;16.77;12.30;;;23.00;55.10;;;;;;5093183;28;20035;-67
2021/09/08 07:46:05;;;;;;;18.25;12.20;;;23.30;54.20;;;;;;5093430;28;20515;-70
2021/09/08 07:48:30;;;;;;;15.02;11.93;;;23.20;54.40;;;;;;5093363;28;20030;-72
2021/09/08 07:50:56;;;;;;;23.25;12.57;;;23.30;54.20;;;;;;5092024;28;20444;-70
2021/09/08 07:53:21;;;;;;;17.05;13.48;;;23.40;54.40;;;;;;5093199;28;20102;-70
2021/09/08 07:55:47;;;;;;;17.98;11.82;;;23.90;53.70;;;;;;5093617;28;20024;-72
2021/09/08 07:58:13;;;;;;;24.92;15.75;;;23.90;53.20;;;;;;5093343;28;20516;-70
2021/09/08 08:00:38;;;;;;;25.02;16.23;;;24.30;53.50;;;;;;5093338;28;20170;-73
2021/09/08 08:03:04;;;;;;;23.15;18.75;;;25.50;50.90;;;;;;5091543;28;20118;-72
2021/09/08 08:05:31;;;;;;;18.75;13.98;;;26.20;48.70;;;;;;5093276;28;20080;-71
2021/09/08 08:07:57;;;;;;;27.83;20.95;;;26.60;46.50;;;;;;5093116;28;20480;-71
2021/09/08 08:10:23;;;;;;;16.40;13.15;;;26.80;47.30;;;;;;5092906;28;20056;-72
2021/09/08 08:12:48;;;;;;;20.98;13.63;;;27.00;45.30;;;;;;5092845;28;20028;-72
2021/09/08 08:15:14;;;;;;;16.65;12.82;;;26.30;46.40;;;;;;5092858;28;20015;-73
2021/09/08 08:17:41;;;;;;;14.88;12.63;;;26.10;47.40;;;;;;5076988;28;20032;-71
2021/09/08 08:20:08;;;;;;;17.23;13.60;;;26.10;47.50;;;;;;5091846;28;20020;-71
2021/09/08 08:22:35;;;;;;;20.65;13.23;;;26.60;46.10;;;;;;5092623;28;20027;-72
2021/09/08 08:25:02;;;;;;;17.25;12.88;;;26.60;46.90;;;;;;5092815;28;20089;-72
2021/09/08 08:27:28;;;;;;;17.63;14.20;;;26.70;47.00;;;;;;5092809;28;20028;-68
2021/09/08 08:29:53;;;;;;;14.02;11.23;;;27.00;46.30;;;;;;5092453;28;20447;-70
2021/09/08 08:32:19;;;;;;;17.23;13.73;;;27.40;46.40;;;;;;5092488;28;20024;-72
2021/09/08 08:34:45;;;;;;;27.70;20.85;;;27.00;45.50;;;;;;5092610;28;20031;-70
2021/09/08 08:37:10;;;;;;;15.98;12.77;;;26.30;47.80;;;;;;5092630;28;20073;-70
2021/09/08 08:39:38;;;;;;;19.67;14.98;;;26.10;48.20;;;;;;5088434;28;20027;-70
2021/09/08 08:42:06;;;;;;;62.72;52.97;;;26.20;48.90;;;;;;5092348;28;20013;-73
2021/09/08 08:44:32;;;;;;;30.73;25.55;;;25.80;50.40;;;;;;5090802;28;20036;-71
2021/09/08 08:46:58;;;;;;;21.95;16.83;;;25.90;50.10;;;;;;5090255;28;20452;-69
2021/09/08 08:49:24;;;;;;;18.35;15.30;;;26.20;48.80;;;;;;5091373;28;20829;-69
2021/09/08 08:51:50;;;;;;;17.58;13.93;;;26.30;49.00;;;;;;5090202;28;20378;-69
2021/09/08 08:54:16;;;;;;;19.58;12.85;;;26.60;48.00;;;;;;5090880;28;20024;-68
2021/09/08 08:56:41;;;;;;;17.85;14.07;;;26.40;47.70;;;;;;5090170;28;20024;-68
2021/09/08 08:59:07;;;;;;;18.33;13.48;;;25.60;49.60;;;;;;5091269;28;20027;-67
2021/09/08 09:01:33;;;;;;;18.75;14.77;;;25.10;50.80;;;;;;5092292;28;20036;-68
2021/09/08 09:04:07;;;;;;;17.33;13.48;;;25.00;51.70;;;;;;5091964;28;20020;-68
2021/09/08 09:06:34;;;;;;;16.83;12.93;;;25.10;51.60;;;;;;5092181;28;20056;-68
2021/09/08 09:09:06;;;;;;;19.75;13.48;;;25.10;51.80;;;;;;5092323;28;20111;-68
2021/09/08 09:11:33;;;;;;;20.35;13.30;;;25.30;51.90;;;;;;5092283;28;20451;-67
2021/09/08 09:14:00;;;;;;;20.00;13.30;;;25.00;51.80;;;;;;5090413;28;20358;-68
2021/09/08 09:16:27;;;;;;;33.22;13.60;;;24.90;51.90;;;;;;5087456;28;20016;-67
2021/09/08 09:18:53;;;;;;;17.38;11.75;;;24.90;52.20;;;;;;5072010;28;20031;-68
2021/09/08 09:21:19;;;;;;;16.50;12.05;;;25.10;52.30;;;;;;5072229;28;20035;-68
2021/09/08 09:23:46;;;;;;;21.70;14.18;;;25.40;50.50;;;;;;5077515;28;20028;-68
2021/09/08 09:26:12;;;;;;;21.73;13.07;;;25.30;51.20;;;;;;5090031;28;20493;-69
2021/09/08 09:28:42;;;;;;;16.80;12.02;;;25.20;51.80;;;;;;5091321;28;20115;-69
2021/09/08 09:31:13;;;;;;;26.25;19.88;;;25.40;51.10;;;;;;5090570;28;20031;-69
2021/09/08 09:33:43;;;;;;;15.70;10.98;;;25.80;52.00;;;;;;5091655;28;20062;-69
2021/09/08 09:36:14;;;;;;;20.47;16.50;;;25.80;51.20;;;;;;5090682;28;20103;-69
2021/09/08 09:38:42;;;;;;;12.93;10.52;;;26.30;51.10;;;;;;5091882;28;20012;-69
2021/09/08 09:41:10;;;;;;;18.42;14.75;;;26.20;49.20;;;;;;5092141;28;20035;-69
2021/09/08 09:43:40;;;;;;;18.13;13.85;;;25.80;50.30;;;;;;5091463;28;20394;-69
2021/09/08 09:46:08;;;;;;;16.67;11.30;;;25.80;51.00;;;;;;5091844;28;20037;-68
2021/09/08 09:48:33;;;;;;;18.98;10.15;;;25.50;50.40;;;;;;5091841;28;20051;-69
2021/09/08 09:51:03;;;;;;;19.13;13.30;;;25.30;50.10;;;;;;5091732;28;20489;-68
2021/09/08 09:53:32;;;;;;;12.45;8.77;;;25.00;48.70;;;;;;5091221;28;20020;-68
2021/09/08 09:55:59;;;;;;;15.38;9.90;;;24.90;49.60;;;;;;5091821;28;20073;-68
2021/09/08 09:58:25;;;;;;;15.82;9.30;;;24.80;49.40;;;;;;5090260;28;20495;-68
2021/09/08 10:00:52;;;;;;;14.45;8.85;;;24.80;49.20;;;;;;5091665;28;20551;-67
2021/09/08 10:03:22;;;;;;;14.05;8.60;;;24.90;50.40;;;;;;5093322;28;20032;-68
2021/09/08 10:05:48;;;;;;;14.90;8.80;;;25.20;49.50;;;;;;5095975;28;20074;-69
2021/09/08 10:08:21;;;;;;;29.80;20.98;;;25.30;45.30;;;;;;5094640;28;20036;-68
2021/09/08 10:10:51;;;;;;;18.38;12.05;;;25.40;46.20;;;;;;5095595;28;20531;-68
2021/09/08 10:13:26;;;;;;;27.33;20.48;;;25.50;44.70;;;;;;5097097;28;20481;-67
2021/09/08 10:15:53;;;;;;;13.00;6.55;;;25.50;48.00;;;;;;5098202;28;20020;-68
2021/09/08 10:18:27;;;;;;;9.57;6.45;;;25.40;41.40;;;;;;5107728;28;20042;-67
2021/09/08 10:21:00;;;;;;;11.55;6.15;;;25.10;41.30;;;;;;5099490;28;20055;-67
2021/09/08 10:23:26;;;;;;;10.73;6.15;;;24.90;42.20;;;;;;5074846;28;20033;-68
2021/09/08 10:25:56;;;;;;;10.18;7.13;;;24.70;42.30;;;;;;5075258;28;20029;-67
2021/09/08 10:28:25;;;;;;;9.38;6.13;;;24.50;43.90;;;;;;5073717;28;20029;-67
2021/09/08 10:30:51;;;;;;;8.73;6.22;;;24.60;44.10;;;;;;5074824;28;20428;-68
2021/09/08 10:33:17;;;;;;;12.65;9.00;;;24.60;45.00;;;;;;5074630;28;20043;-68
2021/09/08 10:35:43;;;;;;;13.32;8.88;;;24.70;46.10;;;;;;5074864;28;20478;-68
2021/09/08 10:38:15;;;;;;;10.85;9.27;;;24.70;46.60;;;;;;5074804;28;20019;-67
2021/09/08 10:40:46;;;;;;;11.50;6.35;;;24.80;46.90;;;;;;5074811;28;20394;-68
2021/09/08 10:43:12;;;;;;;6.95;5.82;;;24.80;44.00;;;;;;5074091;28;20035;-67
2021/09/08 10:45:52;;;;;;;14.88;8.85;;;24.80;44.80;;;;;;5073371;28;20036;-67
2021/09/08 10:48:41;;;;;;;18.33;7.55;;;24.80;47.50;;;;;;5073443;28;20022;-67
2021/09/08 10:51:33;;;;;;;9.52;6.10;;;24.70;44.40;;;;;;5073315;28;20028;-68
2021/09/08 10:54:05;;;;;;;8.48;5.88;;;24.40;42.50;;;;;;5080897;28;20397;-67
2021/09/08 10:56:45;;;;;;;9.40;5.78;;;24.40;41.20;;;;;;5092873;28;20032;-67
2021/09/08 10:59:11;;;;;;;9.13;6.10;;;24.40;42.10;;;;;;5083381;28;20136;-67
2021/09/08 11:01:37;;;;;;;12.63;5.95;;;24.40;44.20;;;;;;5081283;28;20112;-68
2021/09/08 11:04:03;;;;;;;8.95;6.05;;;24.40;42.40;;;;;;5073954;28;20555;-68
2021/09/08 11:06:39;;;;;;;10.68;6.40;;;24.40;42.40;;;;;;5081754;28;20039;-68
2021/09/08 11:09:08;;;;;;;7.78;6.20;;;24.40;43.10;;;;;;5094588;28;20028;-68
2021/09/08 11:11:34;;;;;;;7.30;6.38;;;24.40;42.60;;;;;;5094297;28;20032;-69
2021/09/08 11:13:59;;;;;;;10.38;6.85;;;24.50;43.00;;;;;;5093405;28;20016;-68
2021/09/08 11:16:30;;;;;;;9.18;6.28;;;24.50;41.70;;;;;;5091547;28;20047;-68
2021/09/08 11:18:58;;;;;;;;;;;24.50;42.80;;;;;;5093448;28;20024;-69
2021/09/08 11:21:26;;;;;;;8.13;6.18;;;24.50;41.90;;;;;;5091093;28;19904;-69
2021/09/08 11:24:01;;;;;;;10.45;6.63;;;24.50;41.90;;;;;;5083065;28;20016;-67
2021/09/08 11:26:29;;;;;;;8.23;6.00;;;24.60;41.70;;;;;;5091723;28;20020;-67
2021/09/08 11:29:10;;;;;;;10.68;6.57;;;24.50;41.70;;;;;;5094033;28;20106;-67
2021/09/08 11:31:44;;;;;;;7.75;5.65;;;24.50;41.20;;;;;;5094200;28;20038;-68
2021/09/08 11:34:25;;;;;;;9.52;6.13;;;24.30;39.60;;;;;;5093521;28;20047;-67
2021/09/08 11:36:55;;;;;;;10.57;6.68;;;24.30;41.00;;;;;;5091536;28;20024;-67
2021/09/08 11:39:22;;;;;;;11.60;6.63;;;24.30;42.00;;;;;;5093807;28;20020;-67
2021/09/08 11:42:07;;;;;;;10.05;6.53;;;24.30;43.90;;;;;;5093769;28;20028;-68
2021/09/08 11:44:33;;;;;;;10.57;7.28;;;24.40;41.90;;;;;;5078301;22;20163;-68
2021/09/08 11:46:59;;;;;;;8.55;6.90;;;24.30;42.10;;;;;;5033154;28;20030;-66
2021/09/08 11:49:25;;;;;;;9.15;6.45;;;24.40;41.40;;;;;;5048456;28;20044;-67
2021/09/08 11:51:51;;;;;;;10.15;6.53;;;24.40;41.50;;;;;;5032997;28;20075;-68
2021/09/08 11:54:24;;;;;;;10.48;6.45;;;24.40;41.70;;;;;;5032815;28;20036;-67
2021/09/08 11:56:58;;;;;;;10.73;7.10;;;24.30;41.70;;;;;;5032834;28;20391;-68
2021/09/08 11:59:34;;;;;;;13.00;6.10;;;24.40;41.00;;;;;;5033482;28;20079;-68
2021/09/08 12:02:01;;;;;;;12.80;6.57;;;24.40;41.90;;;;;;5031814;28;20022;-67
2021/09/08 12:04:29;;;;;;;10.57;7.00;;;24.40;42.90;;;;;;5032999;28;20095;-67
2021/09/08 12:07:07;;;;;;;7.82;6.70;;;24.40;44.10;;;;;;5033684;28;20028;-68
2021/09/08 12:09:43;;;;;;;13.13;8.05;;;24.50;43.70;;;;;;5031816;28;20060;-68
2021/09/08 12:12:27;;;;;;;10.48;6.80;;;24.50;44.10;;;;;;5032814;28;20578;-68
2021/09/08 12:14:52;;;;;;;12.32;6.35;;;24.50;44.30;;;;;;5032225;28;20101;-69
2021/09/08 12:17:26;;;;;;;14.02;8.13;;;24.60;42.10;;;;;;5032323;28;20457;-68
2021/09/08 12:20:08;;;;;;;9.73;6.95;;;24.60;45.20;;;;;;5031118;28;20050;-68
2021/09/08 12:22:43;;;;;;;13.93;7.32;;;24.60;43.80;;;;;;5030861;28;20368;-67
2021/09/08 12:25:14;;;;;;;11.23;7.13;;;24.60;43.20;;;;;;5031918;28;20055;-68
2021/09/08 12:27:45;;;;;;;9.60;7.25;;;24.60;43.10;;;;;;5031140;28;20101;-67
2021/09/08 12:30:19;;;;;;;10.43;7.37;;;24.50;44.10;;;;;;5032254;28;20501;-68